Longmont, CO (80501)

11:21 PM MST die 29o January, anno 2015 (GMT -0700)
Northridge Elementary School | Change Station
CLOSE
Current Station
Personal Weather Stations
Location: Longmont, CO
Elevation: 5043 ft
Nearby Weather Stations

Elev 5043 ft 40.19 °N, 105.11 °W | Updated 16 seconds ago

Serena
Serena
36.0 °F
Feels Like 36 °F
N
0.0
Ventus Variabilis Ventus from Inter Austrum et Eurum
Gusts 0.0 mph

Hodie
High -- | Low -- °F
--% Chance of Precip.
Yesterday
High -- | Low -- °F
Precip. -- in
7:12 AM 5:15 PM
Waxing Gibbous, 80% visible
Pressio 30.34 in
Visibilitas 10.0 milia passuum
Clouds Serena
Frigus Venti 36 °F
Frigus in quo Ros apparet 26 °F
Umor 66%
Rainfall 0.00 in
Snow Depth Not available.
UV 0.0 out of 12
Pollen .30 out of 12
Air Quality Not available.
Flu Activity Not available.
METAR KLMO 300615Z AUTO 00000KT 10SM CLR 00/M03 A3034 RMK AO2 T00001030

More Conditions Fewer Conditions

Pressio 30.34 in
Visibilitas 10.0 milia passuum
Clouds Serena
Frigus Venti 36 °F
Frigus in quo Ros apparet 26 °F
Umor 66%
Rainfall 0.00 in
Snow Depth Not available.
UV 0.0 out of 12
Pollen .30 out of 12
Air Quality Not available.
Flu Activity Not available.
METAR KLMO 300615Z AUTO 00000KT 10SM CLR 00/M03 A3034 RMK AO2 T00001030

More Conditions Fewer Conditions

10-Day Weather Forecast

Almanac

Astronomy

Jan. 29, 2015 Rise Set
Actual Time
Civil Twilight
Nautical Twilight
Astronomical Twilight
Moon
Length Of Visible Light
Length of Day
Tomorrow will be .
, % of the Moon is Illuminated

Today's Extremes

State Highs State Lows

Community

WunderPhotos

Upload Photos

1,791,721 photos uploaded!

WunderBlogs® & News

Nearby

Air Quality

  Air Quality AQ Index Pollutant
Not available.

Snow Depth

Station Depth Elevation

Earthquake Activity

City Distance Mag. Time & Date
Minimum magnitude displayed is 2.5.

Coastal Water Temperatures

Locus Calor

Nearby Weather Stations